Time;durP1;ratioP1;P1;durP2;ratioP2;P2;SDS_P1;SDS_P2;PMS_P1;PMS_P2;Temp;Humidity;BMP_temperature;BMP_pressure;BME280_temperature;BME280_humidity;BME280_pressure;Samples;Min_cycle;Max_cycle;Signal;HPM_P1;HPM_P2
2022/10/14 00:01:14;;;;;;;19.70;10.32;;;;;;;4.27;100.00;100325.03;5171961;27;20046;-47
2022/10/14 00:03:41;;;;;;;22.90;10.93;;;;;;;4.28;100.00;100321.19;5172441;27;20454;-49
2022/10/14 00:06:09;;;;;;;24.48;11.57;;;;;;;4.28;100.00;100318.50;5172066;27;20095;-47
2022/10/14 00:08:35;;;;;;;20.10;10.40;;;;;;;4.31;100.00;100310.56;5172047;27;20050;-51
2022/10/14 00:11:07;;;;;;;27.65;12.35;;;;;;;4.35;100.00;100303.44;5171836;27;20054;-47
2022/10/14 00:13:33;;;;;;;25.38;11.18;;;;;;;4.37;100.00;100300.44;5171968;27;20046;-48
2022/10/14 00:16:00;;;;;;;26.52;11.25;;;;;;;4.41;100.00;100298.75;5171693;27;20057;-47
2022/10/14 00:18:26;;;;;;;22.77;11.48;;;;;;;4.41;100.00;100291.41;5172108;27;20058;-49
2022/10/14 00:20:53;;;;;;;24.08;10.93;;;;;;;4.43;100.00;100291.09;5171960;27;20047;-48
2022/10/14 00:23:20;;;;;;;28.35;12.25;;;;;;;4.42;100.00;100256.91;5171954;27;20469;-47
2022/10/14 00:25:46;;;;;;;24.88;11.02;;;;;;;4.41;100.00;100253.38;5172021;27;20052;-47
2022/10/14 00:28:13;;;;;;;23.23;11.40;;;;;;;4.29;100.00;100266.59;5171657;27;20492;-48
2022/10/14 00:30:39;;;;;;;25.73;10.95;;;;;;;4.32;100.00;100266.00;5172015;27;20050;-47
2022/10/14 00:33:05;;;;;;;22.88;11.00;;;;;;;4.33;100.00;100270.38;5171713;27;20080;-47
2022/10/14 00:35:32;;;;;;;27.05;11.48;;;;;;;4.31;100.00;100277.19;5171753;27;20042;-46
2022/10/14 00:37:58;;;;;;;25.65;11.43;;;;;;;4.32;100.00;100265.22;5171583;27;20050;-47
2022/10/14 00:40:24;;;;;;;22.17;10.73;;;;;;;4.34;100.00;100257.59;5171659;27;20057;-49
2022/10/14 00:42:51;;;;;;;23.00;10.73;;;;;;;4.36;100.00;100244.50;5171482;27;20050;-49
2022/10/14 00:45:21;;;;;;;23.67;11.00;;;;;;;4.33;100.00;100240.50;5171512;27;20054;-47
2022/10/14 00:47:49;;;;;;;26.23;10.65;;;;;;;4.29;100.00;100244.09;5173186;27;20492;-47
2022/10/14 00:50:16;;;;;;;25.35;11.77;;;;;;;4.22;100.00;100247.19;5175089;27;20519;-47
2022/10/14 00:52:43;;;;;;;31.65;12.07;;;;;;;4.22;100.00;100220.03;5175410;27;20042;-47
2022/10/14 00:55:13;;;;;;;30.13;11.55;;;;;;;4.32;100.00;100200.06;5174967;27;20050;-50
2022/10/14 00:57:40;;;;;;;23.02;10.82;;;;;;;4.32;100.00;100192.72;5175019;27;20050;-47
2022/10/14 01:00:09;;;;;;;24.95;11.38;;;;;;;4.32;100.00;100202.78;5174927;27;20046;-47
2022/10/14 01:02:37;;;;;;;28.15;12.55;;;;;;;4.34;100.00;100195.94;5175136;27;20053;-48
2022/10/14 01:05:06;;;;;;;21.50;10.20;;;;;;;4.33;100.00;100205.22;5174720;27;20046;-50
2022/10/14 01:07:40;;;;;;;25.30;11.57;;;;;;;4.29;100.00;100197.94;5174790;27;20050;-47
2022/10/14 01:10:12;;;;;;;32.17;12.80;;;;;;;4.40;100.00;100169.53;5174758;27;20509;-46
2022/10/14 01:12:54;;;;;;;31.33;12.20;;;;;;;4.39;100.00;100154.31;5174899;27;20098;-49
2022/10/14 01:15:28;;;;;;;27.50;11.57;;;;;;;4.41;100.00;100141.25;5174766;27;20374;-47
2022/10/14 01:18:03;;;;;;;27.20;11.27;;;;;;;4.40;100.00;100137.75;5174560;27;20060;-47
2022/10/14 01:20:57;;;;;;;23.70;11.00;;;;;;;4.36;100.00;100153.00;5175089;27;20438;-48
2022/10/14 01:23:45;;;;;;;23.65;10.45;;;;;;;4.35;100.00;100172.31;5170419;27;20053;-46
2022/10/14 01:26:28;;;;;;;26.58;12.13;;;;;;;4.25;100.00;100187.66;5174663;27;20050;-47
2022/10/14 01:29:07;;;;;;;25.67;12.02;;;;;;;4.13;100.00;100198.22;5174598;27;20082;-48
2022/10/14 01:31:37;;;;;;;24.52;10.38;;;;;;;4.06;100.00;100194.25;5174413;27;20501;-48
2022/10/14 01:34:09;;;;;;;23.85;9.60;;;;;;;4.09;100.00;100201.78;5174474;27;20501;-47
2022/10/14 01:36:41;;;;;;;26.52;10.32;;;;;;;4.09;100.00;100199.09;5174166;27;20429;-47
2022/10/14 01:39:13;;;;;;;25.00;10.55;;;;;;;4.04;100.00;100199.19;5174296;27;20054;-51
2022/10/14 01:41:45;;;;;;;26.02;10.55;;;;;;;4.07;100.00;100198.59;5174207;27;20057;-47
2022/10/14 01:44:14;;;;;;;22.00;10.55;;;;;;;3.97;100.00;100210.41;5174140;27;20126;-47
2022/10/14 01:46:46;;;;;;;20.75;10.35;;;;;;;3.97;100.00;100213.13;5174466;27;20057;-47
2022/10/14 01:49:17;;;;;;;21.63;9.93;;;;;;;4.00;100.00;100201.69;5173965;27;20053;-47
2022/10/14 01:51:48;;;;;;;27.10;10.40;;;;;;;4.06;100.00;100210.53;5174400;27;20046;-50
2022/10/14 01:54:18;;;;;;;20.70;10.75;;;;;;;4.05;100.00;100212.44;5174032;27;20046;-50
2022/10/14 01:56:47;;;;;;;32.70;9.95;;;;;;;4.03;100.00;100206.50;5174260;27;20050;-49
2022/10/14 01:59:16;;;;;;;18.75;10.13;;;;;;;4.09;100.00;100209.94;5172881;27;20050;-48
2022/10/14 02:01:42;;;;;;;20.60;9.82;;;;;;;4.14;100.00;100205.25;5174044;27;20104;-47
2022/10/14 02:04:15;;;;;;;24.42;10.57;;;;;;;4.16;100.00;100204.94;5173746;27;20046;-47
2022/10/14 02:06:47;;;;;;;21.27;10.02;;;;;;;4.15;100.00;100209.56;5174098;27;20042;-48
2022/10/14 02:09:20;;;;;;;18.58;9.77;;;;;;;4.18;100.00;100210.88;5173727;27;20102;-47
2022/10/14 02:11:58;;;;;;;24.30;9.52;;;;;;;4.18;100.00;100213.59;5173692;27;20519;-47
2022/10/14 02:14:32;;;;;;;23.08;10.35;;;;;;;4.14;100.00;100207.94;5173617;27;20048;-46
2022/10/14 02:17:04;;;;;;;22.98;9.90;;;;;;;4.21;100.00;100205.66;5173519;27;20516;-47
2022/10/14 02:19:38;;;;;;;21.48;8.73;;;;;;;4.15;100.00;100214.97;5173632;27;20056;-48
2022/10/14 02:22:07;;;;;;;;;;;;;;;4.21;100.00;100221.94;5174154;27;20054;-49
2022/10/14 02:24:39;;;;;;;18.80;10.18;;;;;;;4.14;100.00;100223.44;5173645;27;19923;-46
2022/10/14 02:27:11;;;;;;;16.33;8.65;;;;;;;4.07;100.00;100217.59;5173585;27;20136;-47
2022/10/14 02:29:39;;;;;;;19.23;8.68;;;;;;;4.08;100.00;100230.84;5173467;27;20050;-47
2022/10/14 02:32:08;;;;;;;20.80;9.13;;;;;;;4.12;100.00;100225.63;5173739;27;20406;-48
2022/10/14 02:34:37;;;;;;;21.58;10.48;;;;;;;4.15;100.00;100216.91;5173467;27;20050;-47
2022/10/14 02:37:04;;;;;;;25.20;11.25;;;;;;;4.08;100.00;100195.56;5173371;27;20051;-48
2022/10/14 02:39:35;;;;;;;29.10;10.40;;;;;;;4.20;100.00;100151.69;5173194;27;20056;-48
2022/10/14 02:42:02;;;;;;;23.65;10.30;;;;;;;4.20;100.00;100140.84;5173325;27;20511;-49
2022/10/14 02:44:28;;;;;;;23.05;10.98;;;;;;;4.17;100.00;100127.84;5173469;27;20057;-50
2022/10/14 02:46:55;;;;;;;17.08;9.25;;;;;;;4.13;100.00;100097.78;5173448;27;20068;-47
2022/10/14 02:49:22;;;;;;;23.35;9.77;;;;;;;4.32;100.00;100100.41;5173347;27;20050;-47
2022/10/14 02:51:48;;;;;;;19.27;9.63;;;;;;;4.31;100.00;100117.81;5173119;27;20046;-48
2022/10/14 02:54:14;;;;;;;19.08;9.85;;;;;;;4.31;100.00;100144.97;5173248;27;20046;-47
2022/10/14 02:56:40;;;;;;;18.42;8.45;;;;;;;4.23;100.00;100164.63;5173177;27;20397;-48
2022/10/14 02:59:07;;;;;;;18.15;8.80;;;;;;;4.31;100.00;100166.69;5173137;27;20046;-47
2022/10/14 03:01:33;;;;;;;21.83;10.57;;;;;;;4.31;100.00;100174.03;5172898;27;20046;-48
2022/10/14 03:03:59;;;;;;;26.10;9.63;;;;;;;4.33;100.00;100178.06;5173068;27;20094;-47
2022/10/14 03:06:27;;;;;;;20.50;9.38;;;;;;;4.24;100.00;100194.22;5172845;27;20421;-47
2022/10/14 03:08:53;;;;;;;20.48;9.38;;;;;;;4.33;100.00;100199.78;5173105;27;20082;-47
2022/10/14 03:11:19;;;;;;;24.40;9.73;;;;;;;4.35;100.00;100199.47;5172522;27;20046;-48
2022/10/14 03:13:46;;;;;;;18.15;8.82;;;;;;;4.30;100.00;100205.78;5172774;27;20092;-47
2022/10/14 03:16:12;;;;;;;21.60;9.80;;;;;;;4.24;100.00;100223.28;5172921;27;20050;-48
2022/10/14 03:18:38;;;;;;;19.02;10.02;;;;;;;4.31;100.00;100225.59;5172797;27;20429;-49
2022/10/14 03:21:04;;;;;;;20.17;8.45;;;;;;;4.35;100.00;100223.91;5172840;27;20130;-47
2022/10/14 03:23:31;;;;;;;24.75;9.30;;;;;;;4.38;100.00;100229.53;5172426;27;20050;-47
2022/10/14 03:25:57;;;;;;;18.88;8.70;;;;;;;4.33;100.00;100226.09;5172678;27;20050;-47
2022/10/14 03:28:24;;;;;;;17.23;8.43;;;;;;;4.33;100.00;100231.53;5172398;27;20053;-47
2022/10/14 03:30:50;;;;;;;16.80;9.18;;;;;;;4.35;100.00;100232.84;5172732;27;20094;-48
2022/10/14 03:33:16;;;;;;;18.98;8.35;;;;;;;4.35;100.00;100235.56;5172442;27;20070;-49
2022/10/14 03:35:42;;;;;;;26.50;9.60;;;;;;;4.34;100.00;100236.66;5172452;27;20050;-50
2022/10/14 03:38:08;;;;;;;15.75;9.45;;;;;;;4.33;100.00;100237.78;5172460;27;20050;-48
2022/10/14 03:40:35;;;;;;;17.83;9.45;;;;;;;4.30;100.00;100242.97;5172696;27;20054;-49
2022/10/14 03:43:02;;;;;;;18.95;10.15;;;;;;;4.22;100.00;100245.25;5172612;27;20140;-47
2022/10/14 03:45:28;;;;;;;22.15;9.73;;;;;;;4.25;100.00;100252.00;5172433;27;20058;-47
2022/10/14 03:47:54;;;;;;;18.75;8.77;;;;;;;4.19;100.00;100254.00;5172582;27;20056;-49
2022/10/14 03:50:21;;;;;;;19.48;8.70;;;;;;;4.14;100.00;100248.66;5172414;27;20118;-48
2022/10/14 03:52:47;;;;;;;21.35;9.55;;;;;;;4.18;100.00;100246.16;5172867;27;20042;-50
2022/10/14 03:55:13;;;;;;;22.88;10.27;;;;;;;4.13;100.00;100244.34;5172615;27;20053;-48
2022/10/14 03:57:40;;;;;;;24.40;9.85;;;;;;;4.18;100.00;100227.97;5172379;27;20042;-49
2022/10/14 04:00:08;;;;;;;22.25;8.88;;;;;;;4.19;100.00;100226.84;5172085;27;20046;-50
2022/10/14 04:02:34;;;;;;;16.90;8.60;;;;;;;4.14;100.00;100231.56;5172395;27;20046;-48
2022/10/14 04:05:01;;;;;;;22.85;9.85;;;;;;;4.16;100.00;100240.22;5171958;27;20513;-50
2022/10/14 04:07:27;;;;;;;17.33;9.32;;;;;;;4.20;100.00;100233.13;5172242;27;20056;-50
2022/10/14 04:09:53;;;;;;;19.88;9.07;;;;;;;4.24;100.00;100229.50;5172139;27;20052;-50
2022/10/14 04:12:20;;;;;;;17.58;9.30;;;;;;;4.23;100.00;100236.03;5171928;27;20050;-49
2022/10/14 04:14:46;;;;;;;16.02;8.60;;;;;;;4.23;100.00;100236.03;5171989;27;20140;-50
2022/10/14 04:17:13;;;;;;;22.30;8.55;;;;;;;4.19;100.00;100232.28;5171864;27;20113;-49
2022/10/14 04:19:39;;;;;;;23.42;9.73;;;;;;;4.16;100.00;100235.59;5172355;27;20046;-50
2022/10/14 04:22:05;;;;;;;17.75;9.55;;;;;;;4.15;100.00;100217.69;5172394;27;20497;-48
2022/10/14 04:24:32;;;;;;;21.13;9.73;;;;;;;4.21;100.00;100221.16;5175486;27;20098;-47
2022/10/14 04:26:58;;;;;;;18.02;9.10;;;;;;;4.17;100.00;100220.94;5175536;27;20138;-47
2022/10/14 04:29:24;;;;;;;30.30;10.20;;;;;;;4.15;100.00;100220.41;5175486;27;20050;-48
2022/10/14 04:31:51;;;;;;;18.40;9.85;;;;;;;4.14;100.00;100224.25;5175853;27;20046;-48
2022/10/14 04:34:18;;;;;;;22.48;9.38;;;;;;;4.22;100.00;100220.84;5175770;27;20046;-51
2022/10/14 04:36:44;;;;;;;23.38;10.02;;;;;;;4.19;100.00;100216.00;5175195;27;20046;-51
2022/10/14 04:39:10;;;;;;;16.83;9.35;;;;;;;4.17;100.00;100201.13;5175274;27;20416;-50
2022/10/14 04:41:36;;;;;;;18.88;9.32;;;;;;;4.15;100.00;100197.91;5175213;27;20493;-47
2022/10/14 04:44:03;;;;;;;19.52;9.32;;;;;;;4.22;100.00;100192.88;5175130;27;20072;-50
2022/10/14 04:46:30;;;;;;;25.23;10.55;;;;;;;4.23;100.00;100175.50;5175027;27;20382;-50
2022/10/14 04:48:57;;;;;;;23.73;9.57;;;;;;;4.23;100.00;100187.19;5174906;27;20065;-48
2022/10/14 04:51:23;;;;;;;20.45;8.63;;;;;;;4.22;100.00;100195.59;5175216;27;20053;-49
2022/10/14 04:53:49;;;;;;;19.23;9.15;;;;;;;4.13;100.00;100191.94;5174899;27;20050;-52
2022/10/14 04:56:15;;;;;;;18.45;8.15;;;;;;;4.15;100.00;100197.91;5175188;27;20050;-49
2022/10/14 04:58:42;;;;;;;16.17;8.63;;;;;;;4.07;100.00;100202.09;5174815;27;20068;-48
2022/10/14 05:01:08;;;;;;;17.35;8.52;;;;;;;4.11;100.00;100203.13;5175272;27;20053;-49
2022/10/14 05:03:34;;;;;;;20.45;8.95;;;;;;;4.08;100.00;100211.84;5174863;27;20054;-51
2022/10/14 05:06:01;;;;;;;19.08;8.70;;;;;;;4.05;100.00;100207.00;5175077;27;20054;-48
2022/10/14 05:08:27;;;;;;;26.67;8.88;;;;;;;4.03;100.00;100211.91;5174780;27;20050;-49
2022/10/14 05:10:53;;;;;;;24.08;9.02;;;;;;;4.00;100.00;100204.38;5174577;27;20429;-47
2022/10/14 05:13:20;;;;;;;17.83;8.02;;;;;;;4.06;100.00;100203.19;5174809;27;20073;-51
2022/10/14 05:15:46;;;;;;;22.20;8.43;;;;;;;4.12;100.00;100199.28;5174544;27;20527;-48
2022/10/14 05:18:13;;;;;;;18.70;8.73;;;;;;;4.18;100.00;100203.53;5174809;27;20424;-48
2022/10/14 05:20:39;;;;;;;20.23;8.73;;;;;;;4.31;100.00;100206.59;5174744;27;20524;-49
2022/10/14 05:23:06;;;;;;;21.70;9.50;;;;;;;4.61;100.00;100206.06;5174765;27;20045;-51
2022/10/14 05:25:32;;;;;;;15.52;7.22;;;;;;;5.12;100.00;100205.06;5174654;27;20168;-50
2022/10/14 05:27:58;;;;;;;22.27;8.23;;;;;;;5.55;100.00;100252.88;5174825;27;20050;-51
2022/10/14 05:30:25;;;;;;;43.30;9.00;;;;;;;5.43;100.00;100283.28;5174277;27;20046;-50
2022/10/14 05:32:51;;;;;;;33.40;7.78;;;;;;;5.96;100.00;100290.91;5174485;27;20098;-48
2022/10/14 05:35:19;;;;;;;30.67;7.30;;;;;;;6.65;100.00;100295.28;5173547;27;20056;-51
2022/10/14 05:37:45;;;;;;;23.92;7.40;;;;;;;7.34;100.00;100232.09;5174237;27;20043;-48
2022/10/14 05:40:12;;;;;;;12.52;6.10;;;;;;;7.78;100.00;100042.69;5174417;27;20046;-50
2022/10/14 05:42:38;;;;;;;15.80;7.32;;;;;;;8.28;100.00;99784.47;5174356;27;20181;-60
2022/10/14 05:45:05;;;;;;;13.68;6.97;;;;;;;8.85;100.00;99503.00;5174278;27;20382;-61
2022/10/14 05:47:31;;;;;;;24.23;6.50;;;;;;;9.42;100.00;99183.69;5174067;27;20532;-67
2022/10/14 05:49:58;;;;;;;12.20;6.82;;;;;;;9.84;100.00;98989.44;5174216;27;20042;-67
2022/10/14 05:52:24;;;;;;;13.50;6.25;;;;;;;10.13;100.00;98892.09;5174092;27;20050;-60
2022/10/14 05:54:51;;;;;;;14.77;6.80;;;;;;;10.72;100.00;98873.34;5174101;27;20497;-59
2022/10/14 05:57:17;;;;;;;10.90;6.55;;;;;;;11.07;100.00;98856.53;5173898;27;20090;-58
2022/10/14 05:59:44;;;;;;;13.65;6.55;;;;;;;11.71;100.00;98833.59;5174385;27;20050;-57
2022/10/14 06:02:10;;;;;;;14.00;6.72;;;;;;;12.01;100.00;98830.72;5173922;27;20047;-62
2022/10/14 06:04:39;;;;;;;14.27;5.82;;;;;;;12.12;100.00;98856.28;5173913;27;20136;-59
2022/10/14 06:07:06;;;;;;;10.75;6.65;;;;;;;12.39;100.00;98880.78;5173945;27;20078;-54
2022/10/14 06:09:32;;;;;;;15.35;7.25;;;;;;;12.94;100.00;98897.97;5173771;27;20058;-58
2022/10/14 06:11:58;;;;;;;13.93;6.82;;;;;;;13.13;100.00;98913.38;5173801;27;20516;-60
2022/10/14 06:14:25;;;;;;;14.38;6.93;;;;;;;13.17;100.00;98935.41;5173726;27;20046;-62
2022/10/14 06:16:51;;;;;;;30.27;7.07;;;;;;;13.17;100.00;98985.75;5173856;27;20046;-61
2022/10/14 06:19:17;;;;;;;15.38;7.25;;;;;;;13.30;100.00;99024.00;5173793;27;20508;-59
2022/10/14 06:21:44;;;;;;;20.45;7.72;;;;;;;13.52;100.00;99005.56;5173645;27;20053;-62
2022/10/14 06:24:10;;;;;;;12.82;7.05;;;;;;;13.32;100.00;99024.38;5173631;27;20135;-61
2022/10/14 06:26:36;;;;;;;25.20;8.65;;;;;;;13.42;100.00;99018.91;5173850;27;20042;-61
2022/10/14 06:29:03;;;;;;;14.88;8.20;;;;;;;13.82;100.00;99027.31;5173500;27;20050;-61
2022/10/14 06:31:30;;;;;;;19.73;12.35;;;;;;;14.25;100.00;99016.34;5173611;27;20138;-58
2022/10/14 06:33:56;;;;;;;17.60;12.50;;;;;;;14.32;100.00;98999.81;5173684;27;20523;-61
2022/10/14 06:36:22;;;;;;;11.57;8.07;;;;;;;14.59;100.00;99025.84;5173214;27;20501;-61
2022/10/14 06:38:48;;;;;;;16.00;7.95;;;;;;;14.70;100.00;99045.16;5173491;27;20050;-60
2022/10/14 06:41:14;;;;;;;13.27;7.53;;;;;;;14.79;100.00;99066.81;5173071;27;20050;-58
2022/10/14 06:43:41;;;;;;;15.63;7.32;;;;;;;14.43;100.00;99082.53;5173431;27;20053;-59
2022/10/14 06:46:07;;;;;;;16.17;7.47;;;;;;;15.19;100.00;99064.78;5172606;27;20401;-59
2022/10/14 06:48:37;;;;;;;16.67;9.48;;;;;;;14.53;100.00;99066.03;5173082;27;20528;-60
2022/10/14 06:51:04;;;;;;;20.70;7.22;;;;;;;15.34;100.00;99082.13;5173147;27;20431;-59
2022/10/14 06:53:30;;;;;;;16.88;9.02;;;;;;;15.57;100.00;99099.00;5172939;27;20053;-60
2022/10/14 06:55:58;;;;;;;17.83;7.20;;;;;;;15.60;100.00;99109.25;5172951;27;20049;-59
2022/10/14 06:58:24;;;;;;;11.70;7.13;;;;;;;16.06;100.00;99144.25;5173282;27;20050;-63
2022/10/14 07:00:51;;;;;;;18.83;7.38;;;;;;;16.19;100.00;99166.69;5172846;27;20046;-59
2022/10/14 07:03:17;;;;;;;14.73;7.22;;;;;;;16.04;100.00;99140.31;5172838;27;20046;-59
2022/10/14 07:05:44;;;;;;;14.05;7.20;;;;;;;15.97;100.00;99130.88;5172902;27;20065;-62
2022/10/14 07:08:10;;;;;;;17.08;7.00;;;;;;;16.09;100.00;99171.09;5172609;27;20497;-60
2022/10/14 07:10:36;;;;;;;14.15;6.57;;;;;;;16.66;100.00;99172.75;5172912;27;20103;-60
2022/10/14 07:13:03;;;;;;;12.63;6.20;;;;;;;16.46;100.00;99156.69;5172652;27;20050;-62
2022/10/14 07:15:29;;;;;;;12.35;7.65;;;;;;;16.42;100.00;99161.44;5172754;27;20054;-63
2022/10/14 07:17:55;;;;;;;19.48;6.72;;;;;;;16.70;100.00;99174.31;5172471;27;20046;-61
2022/10/14 07:20:21;;;;;;;23.98;7.80;;;;;;;16.41;100.00;99170.16;5172808;27;20046;-63
2022/10/14 07:22:48;;;;;;;15.35;7.00;;;;;;;16.72;100.00;99168.38;5172865;27;20898;-67
2022/10/14 07:25:15;;;;;;;19.27;7.05;;;;;;;17.03;100.00;99180.44;5173145;27;20456;-65
2022/10/14 07:27:41;;;;;;;13.65;7.47;;;;;;;16.96;100.00;99224.00;5172783;27;20081;-66
2022/10/14 07:30:08;;;;;;;13.68;6.70;;;;;;;16.97;100.00;99218.06;5172445;27;20057;-68
2022/10/14 07:32:36;;;;;;;16.25;6.43;;;;;;;17.26;100.00;99234.44;5172961;27;20676;-68
2022/10/14 07:35:02;;;;;;;12.95;7.05;;;;;;;16.86;100.00;99225.66;5172696;27;20050;-61
2022/10/14 07:37:29;;;;;;;14.20;5.95;;;;;;;14.94;100.00;99131.09;5172717;27;20050;-58
2022/10/14 07:39:56;;;;;;;14.73;6.53;;;;;;;15.73;100.00;99135.31;5172506;27;20049;-63
2022/10/14 07:42:22;;;;;;;12.63;6.43;;;;;;;15.30;100.00;99085.66;5172720;27;20098;-64
2022/10/14 07:44:49;;;;;;;14.38;7.10;;;;;;;16.28;100.00;99124.78;5172373;27;20051;-64
2022/10/14 07:47:15;;;;;;;31.73;7.60;;;;;;;15.41;100.00;99066.28;5172120;27;20057;-61
2022/10/14 07:49:42;;;;;;;13.40;7.63;;;;;;;14.02;100.00;98964.34;5172111;27;20089;-62
2022/10/14 07:52:08;;;;;;;17.65;7.55;;;;;;;14.02;100.00;98907.25;5172461;27;20131;-64
2022/10/14 07:54:34;;;;;;;16.42;7.90;;;;;;;13.83;100.00;98913.16;5172265;27;20054;-64
2022/10/14 07:57:01;;;;;;;21.60;9.25;;;;;;;14.78;100.00;98955.63;5170810;27;20509;-62
2022/10/14 07:59:27;;;;;;;14.25;8.13;;;;;;;14.47;100.00;99004.16;5172293;27;20054;-64
2022/10/14 08:01:55;;;;;;;14.27;7.05;;;;;;;14.99;100.00;99011.97;5172007;27;20110;-63
2022/10/14 08:04:22;;;;;;;16.52;10.18;;;;;;;15.36;100.00;99030.81;5172410;27;20401;-63
2022/10/14 08:06:48;;;;;;;16.33;7.80;;;;;;;15.74;100.00;99134.09;5171890;27;20106;-67
2022/10/14 08:09:15;;;;;;;13.80;6.97;;;;;;;16.85;100.00;99165.94;5172130;27;20509;-67
2022/10/14 08:11:42;;;;;;;17.90;7.80;;;;;;;16.86;100.00;99143.41;5172173;27;20497;-67
2022/10/14 08:14:09;;;;;;;14.73;7.15;;;;;;;16.15;100.00;99146.56;5171998;27;20050;-68
2022/10/14 08:16:36;;;;;;;19.98;6.65;;;;;;;17.22;100.00;99176.31;5171661;27;20544;-68
2022/10/14 08:19:05;;;;;;;16.83;7.43;;;;;;;16.78;100.00;99229.66;5172097;27;20054;-67
2022/10/14 08:21:32;;;;;;;48.85;18.42;;;;;;;17.09;100.00;99234.22;5171831;27;20054;-67
2022/10/14 08:23:58;;;;;;;17.42;7.13;;;;;;;16.12;100.00;99217.31;5172032;27;20046;-68
2022/10/14 08:26:27;;;;;;;17.17;6.00;;;;;;;15.88;100.00;99207.91;5171781;27;20497;-67
2022/10/14 08:28:54;;;;;;;16.52;6.57;;;;;;;16.76;100.00;99243.13;5171382;27;20549;-67
2022/10/14 08:31:21;;;;;;;12.05;6.72;;;;;;;15.99;100.00;99241.03;5171753;27;20404;-60
2022/10/14 08:33:48;;;;;;;20.25;6.80;;;;;;;17.27;100.00;99249.91;5171523;27;20050;-64
2022/10/14 08:36:15;;;;;;;15.48;8.13;;;;;;;16.11;100.00;99231.53;5171838;27;20102;-63
2022/10/14 08:38:41;;;;;;;17.23;8.40;;;;;;;16.74;100.00;99195.66;5171509;27;20051;-61
2022/10/14 08:41:24;;;;;;;25.17;10.60;;;;;;;17.37;100.00;99247.03;5171603;27;20053;-60
2022/10/14 08:44:01;;;;;;;24.20;9.05;;;;;;;17.39;100.00;99252.97;5171362;27;20417;-61
2022/10/14 08:46:35;;;;;;;26.35;9.25;;;;;;;18.09;100.00;99265.78;5171868;27;20432;-61
2022/10/14 08:49:09;;;;;;;24.83;8.95;;;;;;;16.88;100.00;99303.56;5171408;27;20057;-61
2022/10/14 08:51:36;;;;;;;;;;;;;;;16.30;100.00;99250.44;5171702;27;20066;-60
2022/10/14 08:54:08;;;;;;;12.63;6.35;;;;;;;16.53;100.00;99202.09;5171230;27;19923;-59
2022/10/14 08:56:36;;;;;;;19.27;8.13;;;;;;;16.09;100.00;99237.47;5171334;27;20141;-60
2022/10/14 08:59:07;;;;;;;23.77;11.93;;;;;;;16.50;100.00;99220.31;5171628;27;20575;-60
2022/10/14 09:01:39;;;;;;;17.92;7.88;;;;;;;16.27;100.00;99203.44;5171150;27;20071;-60
2022/10/14 09:04:10;;;;;;;21.58;8.63;;;;;;;16.53;100.00;99261.03;5171147;27;20050;-60
2022/10/14 09:06:40;;;;;;;21.92;8.48;;;;;;;17.44;100.00;99235.09;5171206;27;20046;-60
2022/10/14 09:09:13;;;;;;;17.75;10.68;;;;;;;17.29;100.00;99225.34;5173051;27;20050;-60
2022/10/14 09:11:43;;;;;;;14.15;5.63;;;;;;;17.93;100.00;99299.66;5174878;27;20054;-59
2022/10/14 09:14:14;;;;;;;12.65;5.47;;;;;;;16.91;100.00;99300.78;5174355;27;20053;-59
2022/10/14 09:16:44;;;;;;;14.65;7.57;;;;;;;17.09;100.00;99263.88;5174731;27;20050;-59
2022/10/14 09:19:17;;;;;;;19.55;6.40;;;;;;;17.08;100.00;99310.16;5174406;27;20054;-60
2022/10/14 09:21:48;;;;;;;10.53;4.87;;;;;;;16.46;100.00;99242.47;5174740;27;20050;-60
2022/10/14 09:24:17;;;;;;;12.98;4.38;;;;;;;15.73;100.00;99258.91;5174669;27;20042;-60
2022/10/14 09:26:45;;;;;;;17.85;6.07;;;;;;;15.63;100.00;99221.75;5174391;27;20126;-59
2022/10/14 09:29:23;;;;;;;14.20;5.53;;;;;;;17.22;100.00;99269.72;5174264;27;20046;-57
2022/10/14 09:31:50;;;;;;;13.13;5.13;;;;;;;16.27;100.00;99229.13;5174216;27;20056;-59
2022/10/14 09:34:19;;;;;;;11.20;4.53;;;;;;;16.08;100.00;99237.88;5174216;27;20141;-59
2022/10/14 09:36:48;;;;;;;9.85;5.55;;;;;;;16.15;100.00;99180.53;5174424;27;20561;-59
2022/10/14 09:39:15;;;;;;;13.45;5.47;;;;;;;15.50;100.00;99221.38;5174177;27;20057;-60
2022/10/14 09:41:43;;;;;;;14.00;5.18;;;;;;;15.53;100.00;99181.91;5173923;27;20052;-60
2022/10/14 09:44:20;;;;;;;10.95;4.53;;;;;;;15.45;100.00;99185.84;5174383;27;20050;-59
2022/10/14 09:46:49;;;;;;;15.02;6.85;;;;;;;16.43;100.00;99209.28;5174050;27;20050;-59
2022/10/14 09:49:19;;;;;;;11.00;5.28;;;;;;;15.18;100.00;99152.34;5174157;27;20062;-59
2022/10/14 09:51:45;;;;;;;10.32;6.53;;;;;;;15.46;100.00;99186.63;5173899;27;20046;-60
2022/10/14 09:54:25;;;;;;;14.32;6.65;;;;;;;16.59;100.00;99240.00;5173701;27;20133;-59
2022/10/14 09:57:03;;;;;;;15.63;5.20;;;;;;;16.17;100.00;99174.63;5173970;27;20046;-60
2022/10/14 09:59:31;;;;;;;16.05;5.85;;;;;;;17.24;100.00;99247.94;5173813;27;20501;-59
2022/10/14 10:02:00;;;;;;;23.10;5.57;;;;;;;17.39;100.00;99257.69;5173897;27;20046;-59
2022/10/14 10:04:35;;;;;;;17.67;6.15;;;;;;;16.64;100.00;99197.28;5173730;27;20046;-59
2022/10/14 10:07:05;;;;;;;20.08;6.53;;;;;;;16.77;100.00;99219.78;5173536;27;20531;-59
2022/10/14 10:09:31;;;;;;;10.38;5.78;;;;;;;16.48;100.00;99220.69;5173537;27;20061;-60
2022/10/14 10:11:58;;;;;;;18.90;6.90;;;;;;;17.07;100.00;99211.66;5174108;27;20046;-58
2022/10/14 10:14:26;;;;;;;15.93;5.68;;;;;;;16.76;100.00;99205.16;5173999;27;20065;-65
2022/10/14 10:17:13;;;;;;;24.25;5.85;;;;;;;16.91;100.00;99203.06;5173565;27;20050;-66
2022/10/14 10:19:42;;;;;;;12.73;6.20;;;;;;;16.63;100.00;99195.72;5172887;27;20054;-65
2022/10/14 10:22:20;;;;;;;9.95;3.65;;;;;;;16.37;100.00;99184.00;5173881;27;20416;-63
2022/10/14 10:24:47;;;;;;;11.40;4.93;;;;;;;15.35;100.00;99186.66;5173873;27;20046;-62
2022/10/14 10:27:20;;;;;;;8.30;4.78;;;;;;;16.44;100.00;99174.88;5173864;27;20421;-63
2022/10/14 10:29:47;;;;;;;10.68;4.18;;;;;;;17.04;100.00;99208.91;5173337;27;20053;-61
2022/10/14 10:32:20;;;;;;;11.88;4.13;;;;;;;16.63;100.00;99195.72;5173310;27;20054;-64
2022/10/14 10:35:10;;;;;;;18.55;4.53;;;;;;;17.05;100.00;99188.34;5173307;27;20051;-62
2022/10/14 10:37:47;;;;;;;11.80;4.00;;;;;;;17.15;100.00;99209.63;5173578;27;20046;-60
2022/10/14 10:40:36;;;;;;;10.52;3.58;;;;;;;16.94;100.00;99197.50;5173223;27;20141;-60
2022/10/14 10:43:35;;;;;;;9.52;3.67;;;;;;;16.45;100.00;99173.69;5173401;27;20098;-61
2022/10/14 10:46:17;;;;;;;8.57;3.40;;;;;;;16.33;100.00;99152.03;5170561;27;20050;-61
2022/10/14 10:48:48;;;;;;;8.43;3.15;;;;;;;16.94;100.00;99178.13;5173064;27;20056;-61
2022/10/14 10:51:25;;;;;;;7.97;3.60;;;;;;;16.97;100.00;99157.16;5173298;27;20053;-60
2022/10/14 10:54:08;;;;;;;15.05;4.32;;;;;;;17.18;100.00;99189.41;5173257;27;20050;-61
2022/10/14 10:56:41;;;;;;;8.05;4.10;;;;;;;16.62;100.00;99158.16;5173056;27;20053;-60
2022/10/14 10:59:36;;;;;;;7.53;3.70;;;;;;;15.97;100.00;99158.50;5172930;27;20046;-61
2022/10/14 11:02:26;;;;;;;10.85;4.45;;;;;;;16.77;100.00;99162.44;5172777;27;20046;-60
2022/10/14 11:04:59;;;;;;;16.00;3.60;;;;;;;16.64;100.00;99133.63;5173127;27;20453;-61
2022/10/14 11:13:21;;;;;;;10.38;3.53;;;;;;;16.37;100.00;99116.81;5173020;27;20065;-56
2022/10/14 11:15:52;;;;;;;10.18;3.25;;;;;;;16.05;100.00;99097.63;5172806;27;20477;-63
2022/10/14 11:18:29;;;;;;;9.90;3.53;;;;;;;15.97;100.00;99074.78;5172801;27;20110;-64
2022/10/14 11:21:09;;;;;;;4.68;2.20;;;;;;;15.22;100.00;99050.19;5172508;27;20105;-64
2022/10/14 11:23:47;;;;;;;6.70;2.80;;;;;;;14.90;100.00;98982.03;5172785;27;20047;-64
2022/10/14 11:26:38;;;;;;;8.05;3.53;;;;;;;15.40;100.00;99012.25;5172606;27;20519;-54
2022/10/14 11:29:17;;;;;;;9.70;5.50;;;;;;;15.47;100.00;99028.00;5172400;27;20064;-57
2022/10/14 11:31:55;;;;;;;5.18;3.38;;;;;;;14.93;100.00;98984.00;5172407;27;20069;-56